sensor_id;sensor_type;location;lat;lon;timestamp;pressure;altitude;pressure_sealevel;temperature;humidity
51053;BME280;37093;37.716;-122.060;2023-05-29T00:00:05;99599.64;;;19.63;40.27
51053;BME280;37093;37.716;-122.060;2023-05-29T00:02:34;99600.86;;;20.13;40.87
51053;BME280;37093;37.716;-122.060;2023-05-29T00:05:03;99594.40;;;19.46;42.22
51053;BME280;37093;37.716;-122.060;2023-05-29T00:07:31;99595.23;;;19.62;41.43
51053;BME280;37093;37.716;-122.060;2023-05-29T00:09:59;99597.68;;;20.45;39.18
51053;BME280;37093;37.716;-122.060;2023-05-29T00:12:28;99593.62;;;20.95;38.44
51053;BME280;37093;37.716;-122.060;2023-05-29T00:14:56;99593.08;;;20.06;40.25
51053;BME280;37093;37.716;-122.060;2023-05-29T00:17:25;99584.38;;;19.72;41.21
51053;BME280;37093;37.716;-122.060;2023-05-29T00:19:53;99584.59;;;18.76;43.34
51053;BME280;37093;37.716;-122.060;2023-05-29T00:22:22;99586.88;;;19.36;43.22
51053;BME280;37093;37.716;-122.060;2023-05-29T00:24:50;99587.01;;;19.25;42.25
51053;BME280;37093;37.716;-122.060;2023-05-29T00:27:19;99591.15;;;19.32;41.75
51053;BME280;37093;37.716;-122.060;2023-05-29T00:29:47;99592.61;;;19.44;41.84
51053;BME280;37093;37.716;-122.060;2023-05-29T00:32:15;99600.99;;;19.15;42.81
51053;BME280;37093;37.716;-122.060;2023-05-29T00:34:43;99606.43;;;18.58;44.25
51053;BME280;37093;37.716;-122.060;2023-05-29T00:37:12;99609.49;;;18.14;44.32
51053;BME280;37093;37.716;-122.060;2023-05-29T00:39:40;99607.78;;;18.36;44.13
51053;BME280;37093;37.716;-122.060;2023-05-29T00:42:08;99602.55;;;17.82;45.48
51053;BME280;37093;37.716;-122.060;2023-05-29T00:44:37;99600.16;;;17.91;45.46
51053;BME280;37093;37.716;-122.060;2023-05-29T00:47:05;99595.60;;;18.24;45.71
51053;BME280;37093;37.716;-122.060;2023-05-29T00:49:34;99596.14;;;18.24;45.46
51053;BME280;37093;37.716;-122.060;2023-05-29T00:52:04;99597.55;;;18.06;45.21
51053;BME280;37093;37.716;-122.060;2023-05-29T00:54:35;99594.27;;;17.69;45.97
51053;BME280;37093;37.716;-122.060;2023-05-29T00:57:03;99596.89;;;17.96;46.00
51053;BME280;37093;37.716;-122.060;2023-05-29T00:59:33;99594.84;;;17.76;45.30
51053;BME280;37093;37.716;-122.060;2023-05-29T01:02:02;99597.57;;;17.64;46.56
51053;BME280;37093;37.716;-122.060;2023-05-29T01:04:31;99600.41;;;17.70;46.45
51053;BME280;37093;37.716;-122.060;2023-05-29T01:07:00;99606.65;;;18.26;45.27
51053;BME280;37093;37.716;-122.060;2023-05-29T01:09:28;99604.10;;;17.67;46.70
51053;BME280;37093;37.716;-122.060;2023-05-29T01:12:02;99608.66;;;17.64;47.21
51053;BME280;37093;37.716;-122.060;2023-05-29T01:14:40;99616.39;;;17.16;47.91
51053;BME280;37093;37.716;-122.060;2023-05-29T01:17:28;99620.17;;;16.80;48.52
51053;BME280;37093;37.716;-122.060;2023-05-29T01:20:09;99620.86;;;17.04;48.36
51053;BME280;37093;37.716;-122.060;2023-05-29T01:22:58;99616.48;;;17.58;47.58
51053;BME280;37093;37.716;-122.060;2023-05-29T01:25:42;99614.55;;;17.37;46.74
51053;BME280;37093;37.716;-122.060;2023-05-29T01:28:16;99619.18;;;17.44;47.63
51053;BME280;37093;37.716;-122.060;2023-05-29T01:30:45;99625.43;;;16.65;48.31
51053;BME280;37093;37.716;-122.060;2023-05-29T01:33:15;99619.90;;;17.52;47.35
51053;BME280;37093;37.716;-122.060;2023-05-29T01:35:43;99622.88;;;17.15;47.08
51053;BME280;37093;37.716;-122.060;2023-05-29T01:38:12;99619.81;;;17.44;47.30
51053;BME280;37093;37.716;-122.060;2023-05-29T01:40:40;99615.64;;;17.45;46.45
51053;BME280;37093;37.716;-122.060;2023-05-29T01:43:09;99621.24;;;17.56;46.96
51053;BME280;37093;37.716;-122.060;2023-05-29T01:45:37;99619.60;;;16.88;47.68
51053;BME280;37093;37.716;-122.060;2023-05-29T01:48:07;99613.20;;;16.56;49.29
51053;BME280;37093;37.716;-122.060;2023-05-29T01:50:37;99610.49;;;16.44;48.97
51053;BME280;37093;37.716;-122.060;2023-05-29T01:53:05;99607.08;;;16.17;49.10
51053;BME280;37093;37.716;-122.060;2023-05-29T01:55:34;99611.46;;;15.81;50.25
51053;BME280;37093;37.716;-122.060;2023-05-29T01:58:02;99619.56;;;16.69;48.99
51053;BME280;37093;37.716;-122.060;2023-05-29T02:00:31;99618.35;;;16.48;48.61
51053;BME280;37093;37.716;-122.060;2023-05-29T02:03:00;99621.89;;;16.87;47.71
51053;BME280;37093;37.716;-122.060;2023-05-29T02:05:28;99622.86;;;16.35;49.09
51053;BME280;37093;37.716;-122.060;2023-05-29T02:07:56;99625.80;;;16.56;48.66
51053;BME280;37093;37.716;-122.060;2023-05-29T02:10:25;99634.05;;;16.32;49.09
51053;BME280;37093;37.716;-122.060;2023-05-29T02:12:53;99631.71;;;16.72;47.82
51053;BME280;37093;37.716;-122.060;2023-05-29T02:15:21;99629.10;;;16.76;47.93
51053;BME280;37093;37.716;-122.060;2023-05-29T02:17:50;99628.65;;;16.85;47.40
51053;BME280;37093;37.716;-122.060;2023-05-29T02:20:19;99625.51;;;16.96;47.05
51053;BME280;37093;37.716;-122.060;2023-05-29T02:22:47;99622.44;;;17.05;46.49
51053;BME280;37093;37.716;-122.060;2023-05-29T02:25:15;99622.75;;;17.29;46.50
51053;BME280;37093;37.716;-122.060;2023-05-29T02:27:44;99624.65;;;16.95;46.72
51053;BME280;37093;37.716;-122.060;2023-05-29T02:30:12;99627.61;;;16.87;47.04
51053;BME280;37093;37.716;-122.060;2023-05-29T02:32:40;99628.94;;;16.72;47.70
51053;BME280;37093;37.716;-122.060;2023-05-29T02:35:09;99629.87;;;16.30;48.21
51053;BME280;37093;37.716;-122.060;2023-05-29T02:37:37;99635.00;;;16.26;48.49
51053;BME280;37093;37.716;-122.060;2023-05-29T02:40:07;99634.16;;;16.41;48.53
51053;BME280;37093;37.716;-122.060;2023-05-29T02:42:36;99638.40;;;16.96;47.25
51053;BME280;37093;37.716;-122.060;2023-05-29T02:45:06;99640.43;;;17.00;47.36
51053;BME280;37093;37.716;-122.060;2023-05-29T02:47:34;99641.79;;;17.09;47.09
51053;BME280;37093;37.716;-122.060;2023-05-29T02:50:03;99641.30;;;17.50;46.21
51053;BME280;37093;37.716;-122.060;2023-05-29T02:52:33;99644.27;;;17.42;46.37
51053;BME280;37093;37.716;-122.060;2023-05-29T02:55:01;99646.44;;;17.21;46.11
51053;BME280;37093;37.716;-122.060;2023-05-29T02:57:29;99648.02;;;16.48;48.19
51053;BME280;37093;37.716;-122.060;2023-05-29T02:59:57;99648.55;;;16.09;49.06
51053;BME280;37093;37.716;-122.060;2023-05-29T03:02:26;99646.30;;;16.64;47.68
51053;BME280;37093;37.716;-122.060;2023-05-29T03:04:54;99641.82;;;16.87;46.58
51053;BME280;37093;37.716;-122.060;2023-05-29T03:07:23;99636.96;;;17.44;45.99
51053;BME280;37093;37.716;-122.060;2023-05-29T03:09:50;99644.64;;;16.75;47.58
51053;BME280;37093;37.716;-122.060;2023-05-29T03:12:19;99642.84;;;16.43;48.40
51053;BME280;37093;37.716;-122.060;2023-05-29T03:14:47;99644.03;;;16.20;49.21
51053;BME280;37093;37.716;-122.060;2023-05-29T03:17:16;99643.84;;;16.56;48.43
51053;BME280;37093;37.716;-122.060;2023-05-29T03:19:44;99643.02;;;16.55;48.35
51053;BME280;37093;37.716;-122.060;2023-05-29T03:22:12;99642.73;;;16.11;48.92
51053;BME280;37093;37.716;-122.060;2023-05-29T03:24:41;99645.93;;;16.48;48.87
51053;BME280;37093;37.716;-122.060;2023-05-29T03:27:09;99647.53;;;16.51;48.65
51053;BME280;37093;37.716;-122.060;2023-05-29T03:29:38;99650.57;;;16.67;48.12
51053;BME280;37093;37.716;-122.060;2023-05-29T03:32:06;99648.38;;;17.19;47.65
51053;BME280;37093;37.716;-122.060;2023-05-29T03:34:34;99646.47;;;16.97;47.87
51053;BME280;37093;37.716;-122.060;2023-05-29T03:37:03;99644.16;;;17.22;46.20
51053;BME280;37093;37.716;-122.060;2023-05-29T03:39:31;99646.28;;;17.60;46.21
51053;BME280;37093;37.716;-122.060;2023-05-29T03:42:00;99648.70;;;17.35;46.73
51053;BME280;37093;37.716;-122.060;2023-05-29T03:44:28;99652.06;;;17.23;47.01
51053;BME280;37093;37.716;-122.060;2023-05-29T03:46:56;99659.94;;;16.87;47.83
51053;BME280;37093;37.716;-122.060;2023-05-29T03:49:25;99659.49;;;16.34;49.92
51053;BME280;37093;37.716;-122.060;2023-05-29T03:51:53;99656.84;;;16.61;48.91
51053;BME280;37093;37.716;-122.060;2023-05-29T03:54:21;99664.43;;;16.44;49.29
51053;BME280;37093;37.716;-122.060;2023-05-29T03:56:49;99669.75;;;17.08;48.49
51053;BME280;37093;37.716;-122.060;2023-05-29T03:59:17;99673.38;;;16.87;47.95
51053;BME280;37093;37.716;-122.060;2023-05-29T04:01:45;99669.09;;;16.50;48.10
51053;BME280;37093;37.716;-122.060;2023-05-29T04:04:14;99673.33;;;16.96;47.08
51053;BME280;37093;37.716;-122.060;2023-05-29T04:06:43;99671.78;;;16.87;46.91
51053;BME280;37093;37.716;-122.060;2023-05-29T04:09:11;99668.84;;;16.54;48.19
51053;BME280;37093;37.716;-122.060;2023-05-29T04:11:39;99665.24;;;16.47;48.90
51053;BME280;37093;37.716;-122.060;2023-05-29T04:14:08;99659.57;;;16.56;48.86
51053;BME280;37093;37.716;-122.060;2023-05-29T04:16:35;99666.60;;;16.59;48.83
51053;BME280;37093;37.716;-122.060;2023-05-29T04:19:04;99673.21;;;16.70;48.63
51053;BME280;37093;37.716;-122.060;2023-05-29T04:21:32;99676.69;;;17.04;48.06
51053;BME280;37093;37.716;-122.060;2023-05-29T04:24:01;99682.42;;;16.32;49.30
51053;BME280;37093;37.716;-122.060;2023-05-29T04:26:29;99684.03;;;16.26;49.77
51053;BME280;37093;37.716;-122.060;2023-05-29T04:28:57;99682.34;;;16.72;48.48
51053;BME280;37093;37.716;-122.060;2023-05-29T04:31:26;99694.91;;;16.70;47.53
51053;BME280;37093;37.716;-122.060;2023-05-29T04:33:55;99696.85;;;16.79;47.25
51053;BME280;37093;37.716;-122.060;2023-05-29T04:36:24;99696.76;;;16.55;47.92
51053;BME280;37093;37.716;-122.060;2023-05-29T04:38:53;99699.80;;;17.05;48.48
51053;BME280;37093;37.716;-122.060;2023-05-29T04:41:21;99696.50;;;16.94;47.90
51053;BME280;37093;37.716;-122.060;2023-05-29T04:43:51;99697.76;;;16.65;47.39
51053;BME280;37093;37.716;-122.060;2023-05-29T04:46:19;99696.66;;;16.62;48.92
51053;BME280;37093;37.716;-122.060;2023-05-29T04:48:47;99691.67;;;16.77;48.02
51053;BME280;37093;37.716;-122.060;2023-05-29T04:51:16;99697.77;;;17.03;47.13
51053;BME280;37093;37.716;-122.060;2023-05-29T04:53:44;99698.59;;;16.49;48.48
51053;BME280;37093;37.716;-122.060;2023-05-29T04:56:12;99703.10;;;16.26;49.39
51053;BME280;37093;37.716;-122.060;2023-05-29T04:58:41;99702.46;;;16.22;50.44
51053;BME280;37093;37.716;-122.060;2023-05-29T05:01:10;99707.79;;;16.10;49.20
51053;BME280;37093;37.716;-122.060;2023-05-29T05:03:38;99709.63;;;16.73;47.96
51053;BME280;37093;37.716;-122.060;2023-05-29T05:06:08;99711.18;;;17.13;47.60
51053;BME280;37093;37.716;-122.060;2023-05-29T05:08:36;99711.33;;;17.14;46.86
51053;BME280;37093;37.716;-122.060;2023-05-29T05:11:04;99708.19;;;16.89;46.16
51053;BME280;37093;37.716;-122.060;2023-05-29T05:13:33;99703.76;;;17.37;45.86
51053;BME280;37093;37.716;-122.060;2023-05-29T05:16:01;99705.85;;;17.03;46.77
51053;BME280;37093;37.716;-122.060;2023-05-29T05:18:30;99705.87;;;16.75;47.51
51053;BME280;37093;37.716;-122.060;2023-05-29T05:20:58;99707.18;;;16.36;47.48
51053;BME280;37093;37.716;-122.060;2023-05-29T05:23:26;99707.67;;;16.80;47.60
51053;BME280;37093;37.716;-122.060;2023-05-29T05:25:54;99710.94;;;16.41;48.06
51053;BME280;37093;37.716;-122.060;2023-05-29T05:28:22;99710.17;;;16.67;47.73
51053;BME280;37093;37.716;-122.060;2023-05-29T05:30:51;99710.70;;;16.19;49.49
51053;BME280;37093;37.716;-122.060;2023-05-29T05:33:20;99714.71;;;16.50;48.91
51053;BME280;37093;37.716;-122.060;2023-05-29T05:35:48;99713.87;;;16.44;48.80
51053;BME280;37093;37.716;-122.060;2023-05-29T05:38:16;99714.39;;;16.55;47.97
51053;BME280;37093;37.716;-122.060;2023-05-29T05:40:45;99714.91;;;16.93;47.55
51053;BME280;37093;37.716;-122.060;2023-05-29T05:43:14;99715.41;;;16.60;47.58
51053;BME280;37093;37.716;-122.060;2023-05-29T05:45:42;99714.20;;;17.30;47.87
51053;BME280;37093;37.716;-122.060;2023-05-29T05:48:11;99712.53;;;16.75;47.93
51053;BME280;37093;37.716;-122.060;2023-05-29T05:50:40;99710.36;;;16.65;48.86
51053;BME280;37093;37.716;-122.060;2023-05-29T05:53:08;99706.01;;;15.93;50.31
51053;BME280;37093;37.716;-122.060;2023-05-29T05:55:37;99708.33;;;16.30;49.27
51053;BME280;37093;37.716;-122.060;2023-05-29T05:58:05;99706.46;;;16.24;49.35
51053;BME280;37093;37.716;-122.060;2023-05-29T06:00:34;99700.83;;;16.22;48.94
51053;BME280;37093;37.716;-122.060;2023-05-29T06:03:02;99703.91;;;16.40;50.29
51053;BME280;37093;37.716;-122.060;2023-05-29T06:05:31;99709.64;;;16.14;50.72
51053;BME280;37093;37.716;-122.060;2023-05-29T06:07:59;99714.72;;;16.49;48.86
51053;BME280;37093;37.716;-122.060;2023-05-29T06:10:27;99709.68;;;16.55;48.65
51053;BME280;37093;37.716;-122.060;2023-05-29T06:12:56;99705.47;;;16.87;47.81
51053;BME280;37093;37.716;-122.060;2023-05-29T06:15:25;99704.90;;;16.63;48.81
51053;BME280;37093;37.716;-122.060;2023-05-29T06:17:53;99705.81;;;16.47;49.33
51053;BME280;37093;37.716;-122.060;2023-05-29T06:20:21;99700.38;;;15.94;50.55
51053;BME280;37093;37.716;-122.060;2023-05-29T06:22:49;99700.34;;;16.50;49.61
51053;BME280;37093;37.716;-122.060;2023-05-29T06:25:18;99706.50;;;16.26;49.46
51053;BME280;37093;37.716;-122.060;2023-05-29T06:27:47;99704.21;;;16.73;48.52
51053;BME280;37093;37.716;-122.060;2023-05-29T06:30:15;99701.06;;;16.70;48.33
51053;BME280;37093;37.716;-122.060;2023-05-29T06:32:43;99700.97;;;16.35;49.60
51053;BME280;37093;37.716;-122.060;2023-05-29T06:35:12;99707.16;;;16.39;49.51
51053;BME280;37093;37.716;-122.060;2023-05-29T06:37:40;99708.17;;;17.10;47.88
51053;BME280;37093;37.716;-122.060;2023-05-29T06:40:10;99705.12;;;16.70;48.15
51053;BME280;37093;37.716;-122.060;2023-05-29T06:42:38;99706.72;;;17.40;47.19
51053;BME280;37093;37.716;-122.060;2023-05-29T06:45:08;99707.72;;;17.41;46.60
51053;BME280;37093;37.716;-122.060;2023-05-29T06:47:37;99697.36;;;17.70;45.56
51053;BME280;37093;37.716;-122.060;2023-05-29T06:50:06;99698.95;;;17.48;46.37
51053;BME280;37093;37.716;-122.060;2023-05-29T06:52:35;99695.65;;;17.04;47.35
51053;BME280;37093;37.716;-122.060;2023-05-29T06:55:04;99697.56;;;16.76;47.50
51053;BME280;37093;37.716;-122.060;2023-05-29T06:57:33;99694.34;;;17.03;48.05
51053;BME280;37093;37.716;-122.060;2023-05-29T07:00:02;99693.34;;;16.23;49.90
51053;BME280;37093;37.716;-122.060;2023-05-29T07:01:14;99690.70;;;15.25;49.47
51053;BME280;37093;37.716;-122.060;2023-05-29T07:03:42;99690.89;;;15.42;48.19
51053;BME280;37093;37.716;-122.060;2023-05-29T07:06:10;99690.21;;;17.67;44.61
51053;BME280;37093;37.716;-122.060;2023-05-29T07:08:38;99689.25;;;18.18;44.24
51053;BME280;37093;37.716;-122.060;2023-05-29T07:11:07;99693.67;;;17.08;45.96
51053;BME280;37093;37.716;-122.060;2023-05-29T07:13:34;99695.49;;;16.91;47.60
51053;BME280;37093;37.716;-122.060;2023-05-29T07:16:03;99691.49;;;16.41;48.77
51053;BME280;37093;37.716;-122.060;2023-05-29T07:18:31;99696.62;;;16.48;48.25
51053;BME280;37093;37.716;-122.060;2023-05-29T07:21:00;99690.49;;;16.37;49.24
51053;BME280;37093;37.716;-122.060;2023-05-29T07:23:28;99690.68;;;16.81;48.71
51053;BME280;37093;37.716;-122.060;2023-05-29T07:25:57;99702.74;;;16.40;48.37
51053;BME280;37093;37.716;-122.060;2023-05-29T07:28:25;99703.79;;;16.55;48.00
51053;BME280;37093;37.716;-122.060;2023-05-29T07:30:54;99698.11;;;16.39;48.69
51053;BME280;37093;37.716;-122.060;2023-05-29T07:33:22;99700.85;;;16.55;48.28
51053;BME280;37093;37.716;-122.060;2023-05-29T07:35:51;99699.80;;;16.35;49.53
51053;BME280;37093;37.716;-122.060;2023-05-29T07:38:19;99696.77;;;16.50;49.60
51053;BME280;37093;37.716;-122.060;2023-05-29T07:40:48;99695.95;;;16.70;48.76
51053;BME280;37093;37.716;-122.060;2023-05-29T07:43:16;99693.56;;;16.50;47.94
51053;BME280;37093;37.716;-122.060;2023-05-29T07:45:45;99688.47;;;16.47;49.01
51053;BME280;37093;37.716;-122.060;2023-05-29T07:48:14;99690.62;;;16.93;48.71
51053;BME280;37093;37.716;-122.060;2023-05-29T07:50:42;99683.09;;;15.77;51.60
51053;BME280;37093;37.716;-122.060;2023-05-29T07:53:11;99686.12;;;15.87;51.75
51053;BME280;37093;37.716;-122.060;2023-05-29T07:55:40;99681.16;;;16.02;50.81
51053;BME280;37093;37.716;-122.060;2023-05-29T07:58:09;99679.23;;;16.18;50.65
51053;BME280;37093;37.716;-122.060;2023-05-29T08:00:37;99683.41;;;16.14;49.49
51053;BME280;37093;37.716;-122.060;2023-05-29T08:03:05;99688.82;;;16.47;49.05
51053;BME280;37093;37.716;-122.060;2023-05-29T08:05:33;99689.65;;;16.66;48.61
51053;BME280;37093;37.716;-122.060;2023-05-29T08:08:02;99685.23;;;17.10;48.24
51053;BME280;37093;37.716;-122.060;2023-05-29T08:10:31;99681.00;;;16.72;48.45
51053;BME280;37093;37.716;-122.060;2023-05-29T08:12:59;99675.53;;;16.66;48.62
51053;BME280;37093;37.716;-122.060;2023-05-29T08:15:27;99672.92;;;15.98;50.06
51053;BME280;37093;37.716;-122.060;2023-05-29T08:17:55;99666.39;;;16.53;49.88
51053;BME280;37093;37.716;-122.060;2023-05-29T08:20:22;99660.23;;;16.49;49.69
51053;BME280;37093;37.716;-122.060;2023-05-29T08:22:51;99659.10;;;16.74;49.41
51053;BME280;37093;37.716;-122.060;2023-05-29T08:25:20;99659.67;;;16.48;49.85
51053;BME280;37093;37.716;-122.060;2023-05-29T08:27:48;99656.82;;;16.26;50.16
51053;BME280;37093;37.716;-122.060;2023-05-29T08:30:17;99651.88;;;16.26;50.48
51053;BME280;37093;37.716;-122.060;2023-05-29T08:32:45;99648.12;;;16.54;49.61
51053;BME280;37093;37.716;-122.060;2023-05-29T08:35:13;99647.97;;;16.22;50.43
51053;BME280;37093;37.716;-122.060;2023-05-29T08:37:42;99654.24;;;16.52;49.83
51053;BME280;37093;37.716;-122.060;2023-05-29T08:40:11;99657.53;;;16.27;49.17
51053;BME280;37093;37.716;-122.060;2023-05-29T08:42:46;99659.50;;;16.30;51.24
51053;BME280;37093;37.716;-122.060;2023-05-29T08:45:16;99663.66;;;15.72;52.62
51053;BME280;37093;37.716;-122.060;2023-05-29T08:47:50;99669.56;;;16.78;49.77
51053;BME280;37093;37.716;-122.060;2023-05-29T08:50:20;99665.78;;;16.83;48.91
51053;BME280;37093;37.716;-122.060;2023-05-29T08:52:49;99652.23;;;17.00;48.73
51053;BME280;37093;37.716;-122.060;2023-05-29T08:55:17;99644.96;;;16.95;49.00
51053;BME280;37093;37.716;-122.060;2023-05-29T08:57:46;99638.35;;;16.55;50.84
51053;BME280;37093;37.716;-122.060;2023-05-29T09:00:16;99630.81;;;16.66;50.88
51053;BME280;37093;37.716;-122.060;2023-05-29T09:02:45;99639.34;;;16.60;51.31
51053;BME280;37093;37.716;-122.060;2023-05-29T09:05:13;99633.41;;;16.77;49.60
51053;BME280;37093;37.716;-122.060;2023-05-29T09:07:41;99628.85;;;16.96;49.43
51053;BME280;37093;37.716;-122.060;2023-05-29T09:10:10;99625.76;;;16.53;49.44
51053;BME280;37093;37.716;-122.060;2023-05-29T09:12:39;99623.80;;;17.00;49.20
51053;BME280;37093;37.716;-122.060;2023-05-29T09:15:18;99629.94;;;16.12;51.08
51053;BME280;37093;37.716;-122.060;2023-05-29T09:17:50;99619.53;;;17.32;48.66
51053;BME280;37093;37.716;-122.060;2023-05-29T09:20:20;99624.21;;;16.41;49.31
51053;BME280;37093;37.716;-122.060;2023-05-29T09:22:54;99631.32;;;17.05;49.58
51053;BME280;37093;37.716;-122.060;2023-05-29T09:25:24;99630.45;;;16.07;50.89
51053;BME280;37093;37.716;-122.060;2023-05-29T09:27:54;99630.18;;;16.53;49.61
51053;BME280;37093;37.716;-122.060;2023-05-29T09:30:34;99625.43;;;16.90;49.61
51053;BME280;37093;37.716;-122.060;2023-05-29T09:33:03;99623.51;;;16.26;50.92
51053;BME280;37093;37.716;-122.060;2023-05-29T09:35:35;99631.47;;;16.60;49.78
51053;BME280;37093;37.716;-122.060;2023-05-29T09:38:05;99630.23;;;16.44;50.67
51053;BME280;37093;37.716;-122.060;2023-05-29T09:40:35;99626.52;;;16.66;50.52
51053;BME280;37093;37.716;-122.060;2023-05-29T09:43:05;99624.17;;;16.36;50.38
51053;BME280;37093;37.716;-122.060;2023-05-29T09:45:38;99627.74;;;16.24;49.42
51053;BME280;37093;37.716;-122.060;2023-05-29T09:48:07;99626.21;;;16.43;51.22
51053;BME280;37093;37.716;-122.060;2023-05-29T09:50:36;99635.01;;;15.66;52.70
51053;BME280;37093;37.716;-122.060;2023-05-29T09:53:04;99635.45;;;15.39;53.39
51053;BME280;37093;37.716;-122.060;2023-05-29T09:55:43;99638.66;;;16.28;51.57
51053;BME280;37093;37.716;-122.060;2023-05-29T09:58:13;99640.21;;;16.43;50.18
51053;BME280;37093;37.716;-122.060;2023-05-29T10:00:42;99641.53;;;15.98;51.36
51053;BME280;37093;37.716;-122.060;2023-05-29T10:03:10;99641.30;;;16.46;50.42
51053;BME280;37093;37.716;-122.060;2023-05-29T10:05:39;99643.99;;;15.98;49.77
51053;BME280;37093;37.716;-122.060;2023-05-29T10:08:11;99644.05;;;15.94;49.70
51053;BME280;37093;37.716;-122.060;2023-05-29T10:10:42;99636.45;;;17.06;47.83
51053;BME280;37093;37.716;-122.060;2023-05-29T10:13:12;99631.93;;;17.37;47.15
51053;BME280;37093;37.716;-122.060;2023-05-29T10:15:42;99629.77;;;17.51;46.49
51053;BME280;37093;37.716;-122.060;2023-05-29T10:18:16;99632.37;;;16.90;47.24
51053;BME280;37093;37.716;-122.060;2023-05-29T10:20:50;99636.14;;;16.12;49.28
51053;BME280;37093;37.716;-122.060;2023-05-29T10:23:22;99635.14;;;16.67;48.33
51053;BME280;37093;37.716;-122.060;2023-05-29T10:25:52;99633.75;;;17.06;47.28
51053;BME280;37093;37.716;-122.060;2023-05-29T10:28:21;99636.82;;;16.52;48.62
51053;BME280;37093;37.716;-122.060;2023-05-29T10:30:53;99635.54;;;16.17;50.50
51053;BME280;37093;37.716;-122.060;2023-05-29T10:33:38;99635.01;;;15.69;52.67
51053;BME280;37093;37.716;-122.060;2023-05-29T10:36:15;99628.93;;;15.49;52.85
51053;BME280;37093;37.716;-122.060;2023-05-29T10:38:46;99629.70;;;15.50;52.15
51053;BME280;37093;37.716;-122.060;2023-05-29T10:41:31;99635.43;;;15.45;51.91
51053;BME280;37093;37.716;-122.060;2023-05-29T10:44:01;99634.47;;;15.35;52.10
51053;BME280;37093;37.716;-122.060;2023-05-29T10:47:05;99634.43;;;14.88;53.17
51053;BME280;37093;37.716;-122.060;2023-05-29T10:49:33;99633.67;;;15.48;51.68
51053;BME280;37093;37.716;-122.060;2023-05-29T10:52:04;99637.30;;;15.64;51.27
51053;BME280;37093;37.716;-122.060;2023-05-29T10:54:49;99632.19;;;15.85;50.36
51053;BME280;37093;37.716;-122.060;2023-05-29T10:57:18;99636.72;;;15.92;52.23
51053;BME280;37093;37.716;-122.060;2023-05-29T10:59:48;99634.36;;;15.94;51.85
51053;BME280;37093;37.716;-122.060;2023-05-29T11:02:26;99626.29;;;15.53;53.24
51053;BME280;37093;37.716;-122.060;2023-05-29T11:05:27;99627.17;;;15.33;53.02
51053;BME280;37093;37.716;-122.060;2023-05-29T11:07:57;99625.80;;;15.29;53.88
51053;BME280;37093;37.716;-122.060;2023-05-29T11:11:12;99628.22;;;15.26;53.45
51053;BME280;37093;37.716;-122.060;2023-05-29T11:13:42;99637.75;;;15.12;55.53
51053;BME280;37093;37.716;-122.060;2023-05-29T11:16:35;99645.93;;;14.22;58.55
51053;BME280;37093;37.716;-122.060;2023-05-29T11:19:05;99637.75;;;14.69;56.46
51053;BME280;37093;37.716;-122.060;2023-05-29T11:21:46;99640.65;;;15.28;55.09
51053;BME280;37093;37.716;-122.060;2023-05-29T11:24:21;99641.20;;;13.86;57.83
51053;BME280;37093;37.716;-122.060;2023-05-29T11:26:51;99639.74;;;14.87;55.17
51053;BME280;37093;37.716;-122.060;2023-05-29T11:29:22;99639.85;;;14.88;55.03
51053;BME280;37093;37.716;-122.060;2023-05-29T11:31:56;99634.12;;;14.62;54.39
51053;BME280;37093;37.716;-122.060;2023-05-29T11:34:28;99632.32;;;15.49;52.99
51053;BME280;37093;37.716;-122.060;2023-05-29T11:36:58;99634.30;;;15.77;52.06
51053;BME280;37093;37.716;-122.060;2023-05-29T11:39:27;99636.47;;;16.16;51.46
51053;BME280;37093;37.716;-122.060;2023-05-29T11:41:56;99633.27;;;15.80;51.75
51053;BME280;37093;37.716;-122.060;2023-05-29T11:44:25;99637.81;;;16.32;50.49
51053;BME280;37093;37.716;-122.060;2023-05-29T11:47:01;99635.29;;;15.61;50.94
51053;BME280;37093;37.716;-122.060;2023-05-29T11:49:30;99629.90;;;15.45;51.93
51053;BME280;37093;37.716;-122.060;2023-05-29T11:52:08;99626.16;;;15.33;53.25
51053;BME280;37093;37.716;-122.060;2023-05-29T11:54:36;99627.83;;;14.78;54.70
51053;BME280;37093;37.716;-122.060;2023-05-29T11:57:05;99631.97;;;15.20;52.76
51053;BME280;37093;37.716;-122.060;2023-05-29T11:59:33;99626.27;;;15.30;53.14
51053;BME280;37093;37.716;-122.060;2023-05-29T12:02:03;99630.61;;;15.36;52.18
51053;BME280;37093;37.716;-122.060;2023-05-29T12:04:31;99630.60;;;15.82;51.56
51053;BME280;37093;37.716;-122.060;2023-05-29T12:07:00;99626.37;;;15.56;52.72
51053;BME280;37093;37.716;-122.060;2023-05-29T12:09:29;99631.36;;;15.11;53.63
51053;BME280;37093;37.716;-122.060;2023-05-29T12:12:02;99637.37;;;15.10;52.18
51053;BME280;37093;37.716;-122.060;2023-05-29T12:14:32;99641.44;;;15.28;52.31
51053;BME280;37093;37.716;-122.060;2023-05-29T12:17:01;99639.83;;;15.73;51.70
51053;BME280;37093;37.716;-122.060;2023-05-29T12:19:29;99644.59;;;15.25;52.86
51053;BME280;37093;37.716;-122.060;2023-05-29T12:21:58;99645.86;;;15.26;52.52
51053;BME280;37093;37.716;-122.060;2023-05-29T12:24:27;99643.04;;;14.88;53.59
51053;BME280;37093;37.716;-122.060;2023-05-29T12:26:55;99644.54;;;15.40;52.38
51053;BME280;37093;37.716;-122.060;2023-05-29T12:29:30;99643.38;;;15.47;51.64
51053;BME280;37093;37.716;-122.060;2023-05-29T12:32:01;99646.86;;;15.43;51.52
51053;BME280;37093;37.716;-122.060;2023-05-29T12:34:34;99652.13;;;15.60;50.15
51053;BME280;37093;37.716;-122.060;2023-05-29T12:37:06;99653.36;;;16.11;50.23
51053;BME280;37093;37.716;-122.060;2023-05-29T12:39:34;99652.84;;;16.05;50.09
51053;BME280;37093;37.716;-122.060;2023-05-29T12:42:03;99650.46;;;16.17;50.08